Terminal Aerodrome Forecast
Issued by NWS Grand Forks, ND

Home | Current Version | Previous Version | Graphics & Text | Print | Product List | Glossary On
Versions: 1 2 3 4 5 6 7 8 9 10 11 12 13 14 15 16 17 18 19 20 21 22 23 24 25 26 27 28 29 30
000
FTUS43 KFGF 180900 AAB
TAFFAR
TAF AMD
KFAR 180910Z 1809/1906 16008KT P6SM VCSH BKN006
      TEMPO 1809/1812 SCT006 BKN100
     FM181800 29010KT P6SM BKN025
     FM182000 31011KT P6SM VCTS BKN035CB=

USA.gov is the U.S. government's official web portal to all federal, state and local government web resources and services.